sensor_id;sensor_type;location;lat;lon;timestamp;pressure;altitude;pressure_sealevel;temperature;humidity
26839;BME280;40088;51.214;6.786;2023-04-22T00:08:34;100555.41;;;18.59;53.67
26839;BME280;40088;51.214;6.786;2023-04-22T00:18:34;100548.19;;;18.58;53.54
26839;BME280;40088;51.214;6.786;2023-04-22T00:28:35;100553.91;;;18.56;53.63
26839;BME280;40088;51.214;6.786;2023-04-22T00:38:35;100543.72;;;18.57;53.83
26839;BME280;40088;51.214;6.786;2023-04-22T00:48:36;100547.56;;;18.56;53.76
26839;BME280;40088;51.214;6.786;2023-04-22T00:58:36;100547.56;;;18.56;53.83
26839;BME280;40088;51.214;6.786;2023-04-22T01:08:37;100544.56;;;18.57;53.76
26839;BME280;40088;51.214;6.786;2023-04-22T01:18:37;100539.69;;;18.59;53.58
26839;BME280;40088;51.214;6.786;2023-04-22T01:28:38;100534.38;;;18.58;53.78
26839;BME280;40088;51.214;6.786;2023-04-22T01:38:39;100536.31;;;18.57;53.75
26839;BME280;40088;51.214;6.786;2023-04-22T01:48:39;100542.88;;;18.56;53.94
26839;BME280;40088;51.214;6.786;2023-04-22T01:58:40;100536.53;;;18.56;53.73
26839;BME280;40088;51.214;6.786;2023-04-22T02:08:40;100549.03;;;18.58;53.69
26839;BME280;40088;51.214;6.786;2023-04-22T02:18:41;100537.16;;;18.58;53.77
26839;BME280;40088;51.214;6.786;2023-04-22T02:28:41;100528.03;;;18.57;53.77
26839;BME280;40088;51.214;6.786;2023-04-22T02:38:42;100531.00;;;18.56;53.89
26839;BME280;40088;51.214;6.786;2023-04-22T02:48:42;100516.31;;;18.55;53.84
26839;BME280;40088;51.214;6.786;2023-04-22T02:58:42;100503.59;;;18.54;53.94
26839;BME280;40088;51.214;6.786;2023-04-22T03:08:43;100488.94;;;18.54;53.70
26839;BME280;40088;51.214;6.786;2023-04-22T03:18:43;100494.25;;;18.55;54.00
26839;BME280;40088;51.214;6.786;2023-04-22T03:28:44;100485.97;;;18.55;53.74
26839;BME280;40088;51.214;6.786;2023-04-22T03:38:44;100456.50;;;18.56;53.89
26839;BME280;40088;51.214;6.786;2023-04-22T03:48:45;100460.94;;;18.57;53.88
26839;BME280;40088;51.214;6.786;2023-04-22T03:58:45;100460.94;;;18.57;53.79
26839;BME280;40088;51.214;6.786;2023-04-22T04:08:45;100456.28;;;18.57;53.79
26839;BME280;40088;51.214;6.786;2023-04-22T04:18:49;100433.34;;;18.57;53.80
26839;BME280;40088;51.214;6.786;2023-04-22T04:28:49;100430.38;;;18.58;53.94
26839;BME280;40088;51.214;6.786;2023-04-22T04:38:50;100431.22;;;18.59;53.90
26839;BME280;40088;51.214;6.786;2023-04-22T04:48:51;100425.91;;;18.57;53.70
26839;BME280;40088;51.214;6.786;2023-04-22T04:58:53;100421.03;;;18.59;53.91
26839;BME280;40088;51.214;6.786;2023-04-22T05:08:53;100408.50;;;18.57;54.27
26839;BME280;40088;51.214;6.786;2023-04-22T05:18:53;100404.47;;;18.59;54.00
26839;BME280;40088;51.214;6.786;2023-04-22T05:28:53;100407.88;;;18.61;53.90
26839;BME280;40088;51.214;6.786;2023-04-22T05:38:54;100425.69;;;18.59;53.83
26839;BME280;40088;51.214;6.786;2023-04-22T05:48:54;100418.25;;;18.59;53.88
26839;BME280;40088;51.214;6.786;2023-04-22T05:58:55;100424.63;;;18.60;53.99
26839;BME280;40088;51.214;6.786;2023-04-22T06:08:55;100412.94;;;18.64;54.01
26839;BME280;40088;51.214;6.786;2023-04-22T06:18:56;100430.78;;;18.62;53.89
26839;BME280;40088;51.214;6.786;2023-04-22T06:28:56;100419.75;;;18.62;53.83
26839;BME280;40088;51.214;6.786;2023-04-22T06:38:56;100403.19;;;18.62;54.00
26839;BME280;40088;51.214;6.786;2023-04-22T06:48:57;100402.13;;;18.63;54.02
26839;BME280;40088;51.214;6.786;2023-04-22T06:58:57;100408.50;;;18.63;54.02
26839;BME280;40088;51.214;6.786;2023-04-22T07:08:57;100410.41;;;18.63;54.05
26839;BME280;40088;51.214;6.786;2023-04-22T07:18:58;100393.00;;;18.62;54.05
26839;BME280;40088;51.214;6.786;2023-04-22T07:28:58;100389.19;;;18.63;54.18
26839;BME280;40088;51.214;6.786;2023-04-22T07:38:58;100365.19;;;18.64;54.18
26839;BME280;40088;51.214;6.786;2023-04-22T07:48:58;100367.09;;;18.63;54.23
26839;BME280;40088;51.214;6.786;2023-04-22T07:58:59;100362.41;;;18.64;54.25
26839;BME280;40088;51.214;6.786;2023-04-22T08:08:59;100360.50;;;18.64;54.41
26839;BME280;40088;51.214;6.786;2023-04-22T08:19:00;100351.38;;;18.64;54.33
26839;BME280;40088;51.214;6.786;2023-04-22T08:29:00;100337.59;;;18.64;54.40
26839;BME280;40088;51.214;6.786;2023-04-22T08:39:00;100342.69;;;18.67;54.33
26839;BME280;40088;51.214;6.786;2023-04-22T08:49:01;100334.59;;;18.65;54.49
26839;BME280;40088;51.214;6.786;2023-04-22T08:59:03;100321.88;;;18.64;54.46
26839;BME280;40088;51.214;6.786;2023-04-22T09:09:03;100311.47;;;18.66;54.46
26839;BME280;40088;51.214;6.786;2023-04-22T09:19:03;100297.03;;;18.64;54.58
26839;BME280;40088;51.214;6.786;2023-04-22T09:29:04;100300.84;;;18.77;54.52
26839;BME280;40088;51.214;6.786;2023-04-22T09:39:08;100304.69;;;18.69;54.75
26839;BME280;40088;51.214;6.786;2023-04-22T09:49:09;100295.78;;;18.60;54.86
26839;BME280;40088;51.214;6.786;2023-04-22T09:59:10;100284.72;;;18.60;54.92
26839;BME280;40088;51.214;6.786;2023-04-22T10:09:11;100277.97;;;18.56;55.22
26839;BME280;40088;51.214;6.786;2023-04-22T10:19:19;100298.13;;;18.57;55.32
26839;BME280;40088;51.214;6.786;2023-04-22T10:29:20;100284.78;;;18.54;55.42
26839;BME280;40088;51.214;6.786;2023-04-22T10:39:21;100293.88;;;18.54;55.63
26839;BME280;40088;51.214;6.786;2023-04-22T10:49:23;100293.28;;;18.52;55.70
26839;BME280;40088;51.214;6.786;2023-04-22T10:59:24;100306.00;;;18.53;55.67
26839;BME280;40088;51.214;6.786;2023-04-22T11:09:25;100294.34;;;18.51;55.72
26839;BME280;40088;51.214;6.786;2023-04-22T11:19:26;100310.66;;;18.53;55.83
26839;BME280;40088;51.214;6.786;2023-04-22T11:29:26;100301.78;;;18.51;55.77
26839;BME280;40088;51.214;6.786;2023-04-22T11:39:34;100288.81;;;18.51;55.91
26839;BME280;40088;51.214;6.786;2023-04-22T11:49:35;100288.81;;;18.51;56.13
26839;BME280;40088;51.214;6.786;2023-04-22T11:59:35;100288.19;;;18.49;56.21
26839;BME280;40088;51.214;6.786;2023-04-22T12:09:35;100286.06;;;18.51;55.88
26839;BME280;40088;51.214;6.786;2023-04-22T12:19:36;100290.75;;;18.51;56.15
26839;BME280;40088;51.214;6.786;2023-04-22T12:29:36;100288.19;;;18.49;56.29
26839;BME280;40088;51.214;6.786;2023-04-22T12:39:37;100280.53;;;18.51;56.36
26839;BME280;40088;51.214;6.786;2023-04-22T12:49:37;100297.09;;;18.51;56.38
26839;BME280;40088;51.214;6.786;2023-04-22T12:59:38;100295.19;;;18.52;56.40
26839;BME280;40088;51.214;6.786;2023-04-22T13:09:38;100306.41;;;18.50;56.51
26839;BME280;40088;51.214;6.786;2023-04-22T13:19:38;100302.63;;;18.51;56.46
26839;BME280;40088;51.214;6.786;2023-04-22T13:29:39;100331.25;;;18.50;56.43
26839;BME280;40088;51.214;6.786;2023-04-22T13:39:40;100328.50;;;18.50;56.54
26839;BME280;40088;51.214;6.786;2023-04-22T13:49:40;100329.56;;;18.49;56.78
26839;BME280;40088;51.214;6.786;2023-04-22T13:59:40;100326.81;;;18.49;56.69
26839;BME280;40088;51.214;6.786;2023-04-22T14:09:40;100324.69;;;18.51;56.80
26839;BME280;40088;51.214;6.786;2023-04-22T14:19:41;100324.69;;;18.51;57.04
26839;BME280;40088;51.214;6.786;2023-04-22T14:29:43;100323.44;;;18.47;56.99
26839;BME280;40088;51.214;6.786;2023-04-22T14:39:45;100329.56;;;18.49;56.60
26839;BME280;40088;51.214;6.786;2023-04-22T14:49:52;100320.19;;;18.70;57.01
26839;BME280;40088;51.214;6.786;2023-04-22T14:59:52;100318.03;;;18.79;56.48
26839;BME280;40088;51.214;6.786;2023-04-22T15:09:52;100327.56;;;18.83;56.57
26839;BME280;40088;51.214;6.786;2023-04-22T15:19:53;100332.44;;;18.87;56.63
26839;BME280;40088;51.214;6.786;2023-04-22T15:29:56;100330.91;;;18.91;56.71
26839;BME280;40088;51.214;6.786;2023-04-22T15:39:57;100333.03;;;18.96;56.68
26839;BME280;40088;51.214;6.786;2023-04-22T15:49:58;100333.00;;;19.03;56.70
26839;BME280;40088;51.214;6.786;2023-04-22T16:00:09;100320.03;;;19.03;56.73
26839;BME280;40088;51.214;6.786;2023-04-22T16:10:11;100329.38;;;19.02;58.23
26839;BME280;40088;51.214;6.786;2023-04-22T16:20:11;100357.63;;;19.04;58.32
26839;BME280;40088;51.214;6.786;2023-04-22T16:30:12;100365.47;;;19.07;58.55
26839;BME280;40088;51.214;6.786;2023-04-22T16:40:12;100363.34;;;19.09;58.47
26839;BME280;40088;51.214;6.786;2023-04-22T16:50:13;100353.75;;;19.12;60.86
26839;BME280;40088;51.214;6.786;2023-04-22T17:00:13;100358.94;;;18.95;59.88
26839;BME280;40088;51.214;6.786;2023-04-22T17:10:14;100365.78;;;18.86;59.48
26839;BME280;40088;51.214;6.786;2023-04-22T17:20:14;100366.66;;;18.80;59.73
26839;BME280;40088;51.214;6.786;2023-04-22T17:30:15;100378.13;;;18.77;59.53
26839;BME280;40088;51.214;6.786;2023-04-22T17:40:15;100370.50;;;18.72;59.53
26839;BME280;40088;51.214;6.786;2023-04-22T17:50:15;100374.53;;;18.69;59.54
26839;BME280;40088;51.214;6.786;2023-04-22T18:00:16;100382.16;;;18.67;59.35
26839;BME280;40088;51.214;6.786;2023-04-22T18:10:17;100389.59;;;18.67;59.25
26839;BME280;40088;51.214;6.786;2023-04-22T18:20:17;100386.19;;;18.65;59.22
26839;BME280;40088;51.214;6.786;2023-04-22T18:30:18;100380.66;;;18.65;59.42
26839;BME280;40088;51.214;6.786;2023-04-22T18:40:19;100386.41;;;18.63;59.38
26839;BME280;40088;51.214;6.786;2023-04-22T18:50:20;100404.03;;;18.62;59.40
26839;BME280;40088;51.214;6.786;2023-04-22T19:00:21;100415.94;;;18.63;59.22
26839;BME280;40088;51.214;6.786;2023-04-22T19:10:21;100435.47;;;18.61;59.44
26839;BME280;40088;51.214;6.786;2023-04-22T19:20:22;100459.25;;;18.62;59.53
26839;BME280;40088;51.214;6.786;2023-04-22T19:30:22;100466.88;;;18.60;59.31
26839;BME280;40088;51.214;6.786;2023-04-22T19:40:25;100476.03;;;18.61;59.38
26839;BME280;40088;51.214;6.786;2023-04-22T19:50:26;100477.91;;;18.60;59.16
26839;BME280;40088;51.214;6.786;2023-04-22T20:00:26;100471.53;;;18.60;59.18
26839;BME280;40088;51.214;6.786;2023-04-22T20:10:27;100485.34;;;18.60;59.16
26839;BME280;40088;51.214;6.786;2023-04-22T20:20:28;100485.34;;;18.60;59.13
26839;BME280;40088;51.214;6.786;2023-04-22T20:30:28;100491.94;;;18.59;59.05
26839;BME280;40088;51.214;6.786;2023-04-22T20:40:28;100498.28;;;18.59;59.10
26839;BME280;40088;51.214;6.786;2023-04-22T20:50:29;100514.22;;;18.57;59.09
26839;BME280;40088;51.214;6.786;2023-04-22T21:00:32;100528.66;;;18.59;59.03
26839;BME280;40088;51.214;6.786;2023-04-22T21:10:33;100539.91;;;18.58;58.69
26839;BME280;40088;51.214;6.786;2023-04-22T21:20:43;100534.16;;;18.59;58.84
26839;BME280;40088;51.214;6.786;2023-04-22T21:30:44;100538.84;;;18.59;58.72
26839;BME280;40088;51.214;6.786;2023-04-22T21:40:45;100538.22;;;18.57;58.67
26839;BME280;40088;51.214;6.786;2023-04-22T21:50:46;100550.72;;;18.59;58.54
26839;BME280;40088;51.214;6.786;2023-04-22T22:00:47;100557.31;;;18.58;58.35
26839;BME280;40088;51.214;6.786;2023-04-22T22:10:47;100561.75;;;18.59;58.23
26839;BME280;40088;51.214;6.786;2023-04-22T22:20:47;100562.81;;;18.58;58.15
26839;BME280;40088;51.214;6.786;2023-04-22T22:30:48;100574.09;;;18.57;58.00
26839;BME280;40088;51.214;6.786;2023-04-22T22:40:48;100573.25;;;18.56;57.96
26839;BME280;40088;51.214;6.786;2023-04-22T22:50:48;100586.19;;;18.56;57.87
26839;BME280;40088;51.214;6.786;2023-04-22T23:00:49;100589.78;;;18.56;57.85
26839;BME280;40088;51.214;6.786;2023-04-22T23:10:49;100580.66;;;18.56;57.68
26839;BME280;40088;51.214;6.786;2023-04-22T23:20:50;100570.66;;;18.55;57.71
26839;BME280;40088;51.214;6.786;2023-04-22T23:30:53;100568.13;;;18.53;57.65
26839;BME280;40088;51.214;6.786;2023-04-22T23:40:53;100559.84;;;18.53;57.71
26839;BME280;40088;51.214;6.786;2023-04-22T23:50:54;100550.72;;;18.53;57.59
